createdAt,value
2019-05-22T00:01:57.124Z,90.20
2019-05-22T00:04:31.861Z,90.10
2019-05-22T00:07:05.666Z,90.20
2019-05-22T00:09:37.941Z,90.20
2019-05-22T00:12:09.526Z,90.30
2019-05-22T00:14:43.613Z,90.40
2019-05-22T00:17:14.005Z,90.30
2019-05-22T00:19:45.089Z,90.20
2019-05-22T00:22:20.320Z,90.00
2019-05-22T00:24:57.454Z,89.70
2019-05-22T00:27:35.056Z,89.60
2019-05-22T00:30:09.711Z,89.30
2019-05-22T00:32:42.975Z,89.30
2019-05-22T00:35:17.820Z,89.60
2019-05-22T00:37:48.482Z,89.60
2019-05-22T01:05:36.947Z,89.80
2019-05-22T01:08:06.753Z,89.90
2019-05-22T01:10:38.436Z,90.00
2019-05-22T01:13:07.961Z,90.10
2019-05-22T01:15:37.468Z,90.00
2019-05-22T01:18:10.364Z,89.80
2019-05-22T01:20:41.715Z,89.70
2019-05-22T01:23:13.529Z,89.30
2019-05-22T01:25:43.567Z,89.40
2019-05-22T01:28:14.405Z,89.10
2019-05-22T01:31:05.220Z,88.90
2019-05-22T01:33:36.163Z,88.60
2019-05-22T01:36:07.502Z,88.40
2019-05-22T01:38:38.929Z,88.30
2019-05-22T01:41:19.284Z,87.90
2019-05-22T01:43:50.838Z,87.70
2019-05-22T01:46:21.542Z,88.00
2019-05-22T01:48:54.216Z,88.20
2019-05-22T01:51:23.672Z,88.40
2019-05-22T01:53:56.333Z,88.20
2019-05-22T01:56:27.574Z,88.00
2019-05-22T01:58:58.529Z,88.20
2019-05-22T02:01:28.125Z,88.00
2019-05-22T02:03:59.423Z,87.80
2019-05-22T02:06:29.353Z,87.60
2019-05-22T02:09:05.718Z,87.70
2019-05-22T02:11:36.279Z,87.70
2019-05-22T02:14:13.353Z,87.40
2019-05-22T02:16:56.745Z,86.60
2019-05-22T02:19:21.094Z,86.10
2019-05-22T02:21:52.220Z,85.70
2019-05-22T02:24:23.342Z,85.20
2019-05-22T02:26:53.281Z,85.00
2019-05-22T02:29:24.010Z,83.80
2019-05-22T02:31:55.797Z,83.50
2019-05-22T02:34:26.611Z,82.90
2019-05-22T02:36:57.998Z,82.60
2019-05-22T02:39:31.389Z,81.80
2019-05-22T02:42:08.698Z,80.80
2019-05-22T02:44:42.971Z,79.10
2019-05-22T02:47:19.784Z,79.10
2019-05-22T02:49:46.646Z,78.10
2019-05-22T02:52:17.022Z,77.50
2019-05-22T02:54:47.553Z,77.20
2019-05-22T02:57:16.997Z,76.00
2019-05-22T02:59:47.210Z,74.90
2019-05-22T03:02:17.099Z,73.80
2019-05-22T03:05:03.971Z,73.90
2019-05-22T03:07:34.816Z,73.30
2019-05-22T03:10:06.373Z,72.70
2019-05-22T03:12:36.586Z,71.90
2019-05-22T03:15:11.505Z,72.00
2019-05-22T03:17:43.369Z,71.30
2019-05-22T03:20:19.134Z,70.40
2019-05-22T03:22:57.555Z,70.00
2019-05-22T03:25:28.349Z,69.70
2019-05-22T03:27:58.003Z,69.00
2019-05-22T03:30:33.963Z,68.10
2019-05-22T03:33:08.310Z,66.30
2019-05-22T03:35:41.173Z,66.90
2019-05-22T03:38:10.930Z,66.80
2019-05-22T03:40:41.232Z,67.60
2019-05-22T03:43:24.144Z,67.90
2019-05-22T03:45:56.630Z,68.00
2019-05-22T03:48:27.863Z,68.60
2019-05-22T03:51:09.651Z,69.40
2019-05-22T03:53:40.334Z,68.60
2019-05-22T03:56:10.584Z,69.10
2019-05-22T03:58:41.751Z,67.80
2019-05-22T04:01:15.757Z,66.70
2019-05-22T04:03:45.982Z,66.30
2019-05-22T04:06:20.168Z,65.50
2019-05-22T04:08:50.199Z,65.00
2019-05-22T04:11:19.245Z,65.20
2019-05-22T04:13:49.346Z,64.90
2019-05-22T04:16:23.388Z,63.90
2019-05-22T04:18:53.768Z,63.40
2019-05-22T04:21:23.892Z,63.00
2019-05-22T04:23:56.062Z,61.80
2019-05-22T04:26:26.857Z,60.80
2019-05-22T04:28:56.217Z,61.20
2019-05-22T04:31:44.961Z,60.60
2019-05-22T04:34:14.508Z,62.50
2019-05-22T04:36:44.279Z,63.20
2019-05-22T04:39:22.453Z,62.50
2019-05-22T04:41:57.417Z,60.80
2019-05-22T04:44:26.868Z,60.60
2019-05-22T04:46:56.809Z,60.50
2019-05-22T04:49:26.332Z,60.80
2019-05-22T04:51:56.041Z,59.80
2019-05-22T04:54:25.662Z,61.00
2019-05-22T04:56:55.867Z,62.80
2019-05-22T04:59:25.701Z,64.20
2019-05-22T05:01:55.349Z,64.60
2019-05-22T05:04:26.166Z,64.00
2019-05-22T05:06:56.422Z,66.90
2019-05-22T05:09:26.747Z,66.50
2019-05-22T05:12:00.187Z,67.00
2019-05-22T05:14:29.444Z,66.20
2019-05-22T05:16:59.043Z,67.00
2019-05-22T05:19:28.663Z,67.70
2019-05-22T05:21:57.970Z,68.00
2019-05-22T05:24:28.213Z,66.50
2019-05-22T05:26:58.593Z,67.80
2019-05-22T05:29:31.442Z,69.00
2019-05-22T05:32:01.564Z,69.70
2019-05-22T05:34:45.401Z,70.30
2019-05-22T05:37:15.884Z,71.00
2019-05-22T05:39:48.402Z,71.00
2019-05-22T05:42:20.137Z,71.20
2019-05-22T05:44:49.253Z,72.20
2019-05-22T05:47:23.211Z,71.80
2019-05-22T05:49:56.240Z,72.10
2019-05-22T05:52:42.390Z,72.50
2019-05-22T05:55:19.646Z,72.30
2019-05-22T05:57:57.848Z,73.40
2019-05-22T06:00:44.563Z,74.70
2019-05-22T06:03:32.075Z,76.70
2019-05-22T06:06:13.455Z,76.60
2019-05-22T06:08:47.941Z,77.20
2019-05-22T06:11:31.037Z,77.70
2019-05-22T06:14:01.097Z,76.80
2019-05-22T06:16:51.432Z,77.80
2019-05-22T06:19:24.097Z,79.10
2019-05-22T06:21:54.834Z,78.30
2019-05-22T06:24:34.156Z,76.00
2019-05-22T06:27:17.179Z,76.80
2019-05-22T06:30:11.789Z,77.60
2019-05-22T06:33:04.226Z,77.00
2019-05-22T06:35:36.340Z,76.50
2019-05-22T06:38:23.498Z,76.10
2019-05-22T06:40:55.363Z,75.80
2019-05-22T06:43:30.472Z,75.90
2019-05-22T06:45:59.716Z,74.50
2019-05-22T06:48:29.001Z,73.90
2019-05-22T06:50:59.622Z,73.10
2019-05-22T06:53:32.606Z,70.60
2019-05-22T06:56:01.701Z,70.60
2019-05-22T06:58:31.412Z,72.60
2019-05-22T07:01:00.649Z,72.90
2019-05-22T07:03:30.419Z,73.40
2019-05-22T07:05:59.618Z,74.00
2019-05-22T07:08:34.912Z,74.80
2019-05-22T07:11:04.862Z,75.10
2019-05-22T07:13:37.187Z,75.30
2019-05-22T07:16:08.697Z,75.70
2019-05-22T07:18:42.817Z,77.70
2019-05-22T07:21:15.718Z,78.50
2019-05-22T07:23:46.222Z,79.90
2019-05-22T07:26:15.928Z,79.90
2019-05-22T07:28:50.719Z,79.60
2019-05-22T07:31:20.789Z,79.10
2019-05-22T07:33:53.949Z,78.90
2019-05-22T07:36:24.375Z,78.30
2019-05-22T07:38:53.595Z,75.30
2019-05-22T07:41:26.032Z,74.20
2019-05-22T07:43:58.510Z,72.90
2019-05-22T07:46:31.223Z,72.90
2019-05-22T07:49:00.825Z,66.60
2019-05-22T07:51:48.464Z,54.70
2019-05-22T07:54:07.243Z,50.10
2019-05-22T07:56:38.411Z,44.90
2019-05-22T07:59:11.544Z,40.90
2019-05-22T08:01:41.246Z,38.70
2019-05-22T08:04:10.861Z,39.80
2019-05-22T08:06:43.373Z,41.20
2019-05-22T08:09:19.195Z,38.10
2019-05-22T08:11:48.711Z,34.80
2019-05-22T08:14:22.945Z,35.30
2019-05-22T08:16:52.429Z,38.80
2019-05-22T08:19:22.117Z,40.80
2019-05-22T08:22:06.264Z,43.20
2019-05-22T08:24:23.582Z,44.90
2019-05-22T08:26:55.211Z,47.30
2019-05-22T08:29:24.270Z,47.30
2019-05-22T08:31:53.839Z,49.90
2019-05-22T08:34:24.482Z,51.30
2019-05-22T08:36:54.295Z,50.70
2019-05-22T08:39:24.425Z,51.00
2019-05-22T08:41:54.285Z,51.50
2019-05-22T08:44:29.562Z,45.30
2019-05-22T08:46:59.087Z,44.20
2019-05-22T08:49:28.664Z,41.40
2019-05-22T08:52:14.889Z,38.00
2019-05-22T08:54:46.906Z,37.50
2019-05-22T08:57:18.067Z,37.30
2019-05-22T08:59:48.799Z,36.60
2019-05-22T09:05:09.618Z,38.30
2019-05-22T09:07:38.155Z,39.50
2019-05-22T09:10:13.652Z,43.70
2019-05-22T09:12:43.285Z,44.50
2019-05-22T09:15:21.489Z,47.10
2019-05-22T09:17:50.564Z,49.00
2019-05-22T09:20:22.780Z,47.20
2019-05-22T09:22:54.278Z,49.60
2019-05-22T09:25:26.481Z,51.50
2019-05-22T09:27:55.550Z,49.40
2019-05-22T09:30:25.193Z,50.30
2019-05-22T09:32:58.378Z,47.70
2019-05-22T09:35:27.438Z,47.70
2019-05-22T09:37:57.361Z,48.20
2019-05-22T09:40:26.747Z,46.70
2019-05-22T09:42:55.865Z,46.70
2019-05-22T09:45:26.183Z,46.80
2019-05-22T09:47:58.091Z,47.30
2019-05-22T09:50:29.893Z,46.20
2019-05-22T09:52:59.715Z,46.00
2019-05-22T09:55:29.049Z,46.00
2019-05-22T09:57:58.273Z,46.80
2019-05-22T10:00:28.725Z,46.20
2019-05-22T10:03:00.588Z,44.30
2019-05-22T10:05:31.438Z,43.20
2019-05-22T10:08:02.216Z,43.40
2019-05-22T10:10:32.384Z,44.80
2019-05-22T10:13:05.990Z,44.20
2019-05-22T10:15:37.868Z,42.80
2019-05-22T10:18:08.781Z,43.80
2019-05-22T10:20:39.940Z,44.80
2019-05-22T10:23:15.478Z,42.50
2019-05-22T10:25:44.555Z,42.30
2019-05-22T10:28:14.081Z,42.40
2019-05-22T10:30:43.288Z,44.20
2019-05-22T10:33:12.662Z,44.70
2019-05-22T10:35:42.430Z,43.90
2019-05-22T10:38:11.879Z,44.30
2019-05-22T10:40:47.751Z,43.20
2019-05-22T10:43:20.920Z,42.90
2019-05-22T10:45:50.216Z,42.70
2019-05-22T10:48:23.108Z,43.20
2019-05-22T10:50:52.200Z,42.30
2019-05-22T10:53:33.065Z,43.00
2019-05-22T10:55:57.526Z,43.40
2019-05-22T10:58:31.668Z,43.40
2019-05-22T11:01:00.777Z,45.00
2019-05-22T11:03:30.121Z,44.00
2019-05-22T11:06:07.072Z,44.90
2019-05-22T11:08:34.313Z,47.40
2019-05-22T11:11:02.528Z,45.50
2019-05-22T11:13:34.164Z,46.60
2019-05-22T11:16:03.841Z,44.60
2019-05-22T11:18:38.850Z,44.00
2019-05-22T11:21:09.811Z,45.00
2019-05-22T11:23:51.462Z,44.70
2019-05-22T11:26:13.834Z,45.30
2019-05-22T11:28:43.566Z,44.80
2019-05-22T11:31:19.495Z,44.00
2019-05-22T11:33:48.621Z,43.20
2019-05-22T11:36:21.747Z,43.30
2019-05-22T11:38:51.108Z,44.60
2019-05-22T11:41:27.103Z,44.10
2019-05-22T11:43:52.789Z,43.90
2019-05-22T11:46:22.051Z,42.30
2019-05-22T11:48:51.866Z,43.60
2019-05-22T11:51:22.099Z,43.70
2019-05-22T11:54:07.974Z,44.50
2019-05-22T11:56:22.833Z,44.10
2019-05-22T11:58:52.030Z,44.10
2019-05-22T12:01:29.462Z,43.10
2019-05-22T12:04:02.843Z,43.30
2019-05-22T12:06:35.141Z,40.60
2019-05-22T12:09:07.475Z,41.60
2019-05-22T12:11:42.926Z,42.60
2019-05-22T12:14:11.821Z,42.80
2019-05-22T12:16:44.354Z,43.10
2019-05-22T12:19:17.617Z,43.00
2019-05-22T12:21:47.023Z,43.10
2019-05-22T12:24:26.961Z,43.70
2019-05-22T12:26:50.543Z,43.40
2019-05-22T12:29:26.025Z,44.30
2019-05-22T12:31:59.268Z,46.30
2019-05-22T12:34:31.075Z,47.00
2019-05-22T12:37:01.321Z,46.90
2019-05-22T12:39:31.621Z,47.50
2019-05-22T12:42:01.590Z,47.80
2019-05-22T12:44:34.066Z,48.70
2019-05-22T12:47:03.815Z,49.40
2019-05-22T12:49:33.116Z,50.10
2019-05-22T12:52:06.279Z,51.30
2019-05-22T12:54:45.858Z,51.60
2019-05-22T12:57:07.163Z,51.20
2019-05-22T12:59:37.086Z,51.00
2019-05-22T13:02:09.722Z,51.80
2019-05-22T13:04:39.239Z,50.10
2019-05-22T13:07:08.869Z,49.70
2019-05-22T13:09:38.697Z,49.10
2019-05-22T13:12:12.798Z,47.70
2019-05-22T13:14:42.634Z,47.80
2019-05-22T13:17:14.069Z,45.90
2019-05-22T13:19:51.872Z,46.50
2019-05-22T13:22:24.838Z,46.00
2019-05-22T13:24:57.514Z,44.40
2019-05-22T13:27:29.656Z,45.00
2019-05-22T13:30:11.576Z,44.30
2019-05-22T13:32:46.516Z,44.60
2019-05-22T13:35:21.686Z,44.30
2019-05-22T13:37:50.847Z,44.30
2019-05-22T13:40:27.740Z,44.70
2019-05-22T13:42:55.180Z,44.10
2019-05-22T13:45:29.159Z,43.90
2019-05-22T13:48:01.212Z,43.80
2019-05-22T13:50:31.788Z,44.30
2019-05-22T13:53:03.251Z,44.40
2019-05-22T13:55:33.573Z,43.90
2019-05-22T13:58:04.201Z,44.30
2019-05-22T14:00:33.491Z,43.00
2019-05-22T14:03:05.958Z,41.40
2019-05-22T14:05:36.899Z,42.30
2019-05-22T14:08:11.968Z,42.80
2019-05-22T14:10:41.577Z,42.90
2019-05-22T14:13:11.794Z,42.70
2019-05-22T14:15:54.926Z,43.00
2019-05-22T14:18:21.282Z,43.60
2019-05-22T14:20:52.403Z,44.90
2019-05-22T14:23:29.517Z,45.70
2019-05-22T14:25:58.839Z,45.70
2019-05-22T14:28:32.401Z,46.00
2019-05-22T14:31:01.541Z,45.80
2019-05-22T14:33:33.087Z,46.30
2019-05-22T14:36:05.972Z,46.40
2019-05-22T14:38:37.836Z,46.90
2019-05-22T14:41:10.434Z,46.70
2019-05-22T14:43:39.614Z,47.00
2019-05-22T14:46:08.932Z,48.00
2019-05-22T14:48:44.221Z,47.70
2019-05-22T14:51:16.534Z,48.40
2019-05-22T14:53:46.278Z,48.30
2019-05-22T14:56:17.906Z,48.20
2019-05-22T15:01:20.190Z,48.00
2019-05-22T15:03:49.683Z,49.20
2019-05-22T15:06:22.283Z,49.30
2019-05-22T15:08:59.254Z,49.30
2019-05-22T15:11:35.718Z,49.90
2019-05-22T15:14:19.291Z,49.80
2019-05-22T15:16:44.846Z,50.00
2019-05-22T15:19:18.933Z,49.80
2019-05-22T15:21:49.082Z,49.90
2019-05-22T15:24:20.433Z,50.50
2019-05-22T15:26:50.041Z,50.50
2019-05-22T15:29:19.737Z,51.00
2019-05-22T15:31:55.814Z,51.00
2019-05-22T15:34:27.754Z,51.40
2019-05-22T15:36:58.037Z,51.70
2019-05-22T15:39:34.396Z,52.20
2019-05-22T15:42:09.796Z,52.90
2019-05-22T15:44:41.807Z,51.50
2019-05-22T15:47:14.560Z,50.90
2019-05-22T15:49:49.771Z,49.30
2019-05-22T15:52:21.452Z,49.90
2019-05-22T15:54:51.702Z,50.50
2019-05-22T15:57:23.347Z,50.60
2019-05-22T15:59:54.267Z,51.10
2019-05-22T16:02:25.837Z,51.30
2019-05-22T16:04:57.934Z,51.10
2019-05-22T16:07:29.613Z,50.90
2019-05-22T16:09:59.222Z,51.10
2019-05-22T16:12:29.144Z,50.30
2019-05-22T16:15:01.402Z,50.50
2019-05-22T16:17:35.421Z,50.10
2019-05-22T16:20:06.259Z,49.80
2019-05-22T16:22:37.376Z,49.90
2019-05-22T16:25:13.559Z,49.90
2019-05-22T16:27:45.253Z,49.30
2019-05-22T16:30:21.267Z,49.90
2019-05-22T16:32:54.866Z,49.70
2019-05-22T16:35:24.685Z,50.30
2019-05-22T16:37:54.696Z,49.80
2019-05-22T16:40:24.506Z,50.40
2019-05-22T16:42:56.575Z,50.30
2019-05-22T16:45:38.827Z,50.00
2019-05-22T16:48:27.274Z,49.50
2019-05-22T16:50:43.318Z,50.10
2019-05-22T16:53:13.953Z,49.50
2019-05-22T16:55:47.826Z,49.60
2019-05-22T16:58:19.616Z,49.30
2019-05-22T17:00:51.903Z,50.00
2019-05-22T17:03:25.122Z,49.50
2019-05-22T17:05:54.867Z,49.60
2019-05-22T17:08:24.291Z,49.60
2019-05-22T17:10:57.512Z,49.30
2019-05-22T17:13:33.552Z,49.00
2019-05-22T17:16:06.518Z,49.00
2019-05-22T17:18:47.652Z,49.40
2019-05-22T17:21:14.169Z,49.50
2019-05-22T17:23:45.524Z,49.50
2019-05-22T17:26:15.294Z,50.30
2019-05-22T17:28:50.159Z,50.60
2019-05-22T17:31:19.427Z,50.80
2019-05-22T17:33:48.716Z,50.80
2019-05-22T17:36:22.708Z,52.00
2019-05-22T17:39:07.438Z,52.40
2019-05-22T17:41:40.003Z,52.40
2019-05-22T17:44:12.650Z,53.00
2019-05-22T17:46:45.800Z,52.70
2019-05-22T17:49:27.409Z,52.70
2019-05-22T17:51:56.821Z,52.70
2019-05-22T17:54:26.233Z,53.00
2019-05-22T17:56:56.044Z,52.70
2019-05-22T17:59:25.438Z,52.90
2019-05-22T18:01:55.560Z,52.70
2019-05-22T18:04:24.964Z,52.40
2019-05-22T18:06:56.614Z,53.00
2019-05-22T18:09:28.581Z,53.30
2019-05-22T18:11:57.773Z,53.80
2019-05-22T18:14:28.506Z,54.40
2019-05-22T18:16:58.934Z,55.20
2019-05-22T18:19:29.221Z,55.80
2019-05-22T18:21:59.494Z,56.20
2019-05-22T18:24:33.898Z,56.60
2019-05-22T18:27:03.199Z,57.20
2019-05-22T18:29:36.190Z,57.70
2019-05-22T18:32:09.196Z,57.90
2019-05-22T18:44:44.194Z,58.30
2019-05-22T18:47:18.074Z,59.30
2019-05-22T18:49:49.586Z,60.10
2019-05-22T18:52:40.561Z,60.30
2019-05-22T18:55:06.092Z,61.00
2019-05-22T18:57:49.681Z,62.00
2019-05-22T19:00:24.077Z,62.60
2019-05-22T19:02:57.271Z,63.10
2019-05-22T19:10:27.141Z,63.20
2019-05-22T19:12:56.437Z,64.00
2019-05-22T19:15:30.249Z,64.30
2019-05-22T19:18:00.193Z,64.60
2019-05-22T19:20:29.252Z,65.50
2019-05-22T19:23:02.161Z,65.80
2019-05-22T19:25:31.377Z,65.80
2019-05-22T19:30:29.419Z,66.80
2019-05-22T19:32:58.513Z,66.70
2019-05-22T19:35:28.735Z,67.00
2019-05-22T19:38:05.178Z,67.40
2019-05-22T19:40:35.125Z,67.60
2019-05-22T19:43:09.062Z,67.80
2019-05-22T19:45:44.277Z,68.20
2019-05-22T19:48:13.371Z,68.70
2019-05-22T19:50:42.864Z,69.20
2019-05-22T19:53:18.574Z,69.40
2019-05-22T19:55:49.943Z,70.00
2019-05-22T19:58:22.019Z,71.30
2019-05-22T20:00:51.827Z,70.70
2019-05-22T20:13:29.316Z,71.50
2019-05-22T20:16:02.989Z,73.70
2019-05-22T20:18:37.325Z,74.60
2019-05-22T20:21:09.649Z,75.20
2019-05-22T20:23:44.324Z,75.50
2019-05-22T20:26:17.308Z,75.90
2019-05-22T20:28:47.660Z,76.20
2019-05-22T20:31:17.229Z,76.40
2019-05-22T20:33:46.773Z,76.50
2019-05-22T20:36:16.751Z,76.50
2019-05-22T20:38:47.170Z,76.60
2019-05-22T20:41:16.489Z,76.40
2019-05-22T20:43:52.271Z,76.70
2019-05-22T20:46:22.193Z,76.60
2019-05-22T20:48:51.461Z,76.90
2019-05-22T20:56:21.851Z,77.10
2019-05-22T20:58:57.243Z,77.40
2019-05-22T21:01:29.137Z,78.80
2019-05-22T21:04:01.589Z,78.50
2019-05-22T21:06:33.491Z,78.70
2019-05-22T21:09:05.418Z,79.20
2019-05-22T21:11:36.861Z,79.20
2019-05-22T21:14:13.857Z,79.70
2019-05-22T21:16:43.977Z,80.30
2019-05-22T21:19:13.988Z,80.70
2019-05-22T21:21:44.042Z,80.80
2019-05-22T21:24:14.356Z,81.10
2019-05-22T21:26:44.309Z,81.40
2019-05-22T21:29:14.152Z,81.70
2019-05-22T21:31:47.672Z,81.90
2019-05-22T21:34:15.783Z,82.00
2019-05-22T21:36:45.101Z,82.20
2019-05-22T21:39:15.147Z,82.10
2019-05-22T21:41:45.052Z,82.40
2019-05-22T21:44:16.805Z,82.80
2019-05-22T21:46:51.180Z,82.90
2019-05-22T21:49:23.501Z,83.40
2019-05-22T21:52:00.867Z,83.30
2019-05-22T21:54:43.613Z,83.60
2019-05-22T21:57:15.578Z,83.60
2019-05-22T21:59:45.766Z,84.20
2019-05-22T22:02:19.366Z,84.60
2019-05-22T22:04:48.883Z,85.30
2019-05-22T22:07:18.592Z,85.50
2019-05-22T22:09:49.420Z,85.70
2019-05-22T22:12:22.305Z,85.80
2019-05-22T22:14:55.185Z,86.00
2019-05-22T22:17:31.123Z,86.40
2019-05-22T22:20:00.237Z,86.70
2019-05-22T22:22:30.970Z,86.80
2019-05-22T22:25:05.592Z,87.00
2019-05-22T22:27:38.480Z,87.10
2019-05-22T22:30:18.620Z,87.20
2019-05-22T22:32:50.932Z,87.30
2019-05-22T22:35:21.059Z,87.50
2019-05-22T22:37:51.290Z,87.60
2019-05-22T22:40:27.445Z,87.70
2019-05-22T22:42:56.904Z,88.40
2019-05-22T22:45:30.303Z,87.60
2019-05-22T22:48:04.004Z,88.40
2019-05-22T22:50:33.104Z,87.80
2019-05-22T22:53:04.829Z,88.00
2019-05-22T22:55:34.676Z,87.90
2019-05-22T22:58:18.819Z,88.00
2019-05-22T23:00:49.665Z,88.20
2019-05-22T23:28:40.702Z,88.60
2019-05-22T23:31:10.125Z,90.90
2019-05-22T23:33:39.425Z,91.00
2019-05-22T23:36:09.107Z,91.10
2019-05-22T23:38:38.736Z,91.30
2019-05-22T23:41:09.528Z,91.40
2019-05-22T23:43:41.178Z,91.70
2019-05-22T23:46:13.805Z,92.00
2019-05-22T23:48:44.141Z,92.40
2019-05-22T23:51:13.234Z,92.70
2019-05-22T23:53:43.139Z,92.90
2019-05-22T23:56:12.706Z,93.20
2019-05-22T23:58:52.659Z,93.30
